createdAt,value
2023-05-14T00:01:03.030Z,98201.41
2023-05-14T00:04:06.519Z,98195.50
2023-05-14T00:07:10.819Z,98196.88
2023-05-14T00:10:13.610Z,98188.00
2023-05-14T00:13:16.363Z,98188.50
2023-05-14T00:16:19.140Z,98186.91
2023-05-14T00:19:21.913Z,98183.47
2023-05-14T00:22:26.043Z,98177.28
2023-05-14T00:25:29.235Z,98175.22
2023-05-14T00:28:31.930Z,98172.59
2023-05-14T00:31:34.660Z,98166.50
2023-05-14T00:34:37.384Z,98172.47
2023-05-14T00:37:41.510Z,98171.66
2023-05-14T00:40:46.040Z,98170.91
2023-05-14T00:43:48.900Z,98171.69
2023-05-14T00:46:51.811Z,98167.13
2023-05-14T00:49:54.548Z,98154.78
2023-05-14T00:52:58.867Z,98162.34
2023-05-14T00:56:01.845Z,98158.31
2023-05-14T00:59:04.582Z,98158.09
2023-05-14T01:02:07.494Z,98158.13
2023-05-14T01:05:11.037Z,98153.38
2023-05-14T01:08:22.725Z,98156.91
2023-05-14T01:11:30.193Z,98150.22
2023-05-14T01:14:53.538Z,98147.28
2023-05-14T01:18:05.595Z,98146.78
2023-05-14T01:21:21.186Z,98146.25
2023-05-14T01:24:25.588Z,98140.13
2023-05-14T01:27:48.741Z,98145.28
2023-05-14T01:30:58.148Z,98147.78
2023-05-14T01:34:02.993Z,98145.09
2023-05-14T01:37:07.553Z,98145.72
2023-05-14T01:40:12.389Z,98145.22
2023-05-14T01:43:16.097Z,98141.78
2023-05-14T01:46:19.293Z,98137.50
2023-05-14T01:49:22.009Z,98143.16
2023-05-14T01:52:24.728Z,98145.31
2023-05-14T01:55:28.845Z,98141.06
2023-05-14T01:58:31.610Z,98144.28
2023-05-14T02:01:34.465Z,98142.22
2023-05-14T02:04:37.189Z,98139.03
2023-05-14T02:07:40.393Z,98137.72
2023-05-14T02:10:44.527Z,98135.84
2023-05-14T02:13:47.241Z,98139.84
2023-05-14T02:16:50.986Z,98147.06
2023-05-14T02:19:53.816Z,98144.66
2023-05-14T02:22:56.600Z,98143.91
2023-05-14T02:26:00.640Z,98146.06
2023-05-14T02:29:03.427Z,98150.09
2023-05-14T02:32:06.790Z,98146.09
2023-05-14T02:35:10.404Z,98143.94
2023-05-14T02:38:13.044Z,98148.53
2023-05-14T02:41:17.120Z,98149.31
2023-05-14T02:44:19.892Z,98144.47
2023-05-14T02:47:22.765Z,98148.50
2023-05-14T02:50:25.833Z,98150.13
2023-05-14T02:53:28.741Z,98147.97
2023-05-14T02:56:32.873Z,98151.19
2023-05-14T02:59:35.979Z,98148.75
2023-05-14T03:02:39.577Z,98151.66
2023-05-14T03:05:42.641Z,98156.25
2023-05-14T03:08:45.880Z,98158.09
2023-05-14T03:11:51.540Z,98151.09
2023-05-14T03:14:54.227Z,98165.59
2023-05-14T03:17:57.041Z,98153.25
2023-05-14T03:20:59.886Z,98147.88
2023-05-14T03:24:02.641Z,98147.31
2023-05-14T03:27:07.080Z,98149.94
2023-05-14T03:30:11.749Z,98136.78
2023-05-14T03:33:15.209Z,98146.97
2023-05-14T03:36:17.915Z,98141.59
2023-05-14T03:39:21.127Z,98149.63
2023-05-14T03:42:25.331Z,98148.25
2023-05-14T03:45:28.713Z,98150.41
2023-05-14T03:48:31.504Z,98147.13
2023-05-14T03:51:34.243Z,98136.34
2023-05-14T03:54:38.126Z,98148.47
2023-05-14T03:57:42.149Z,98139.66
2023-05-14T04:00:44.961Z,98139.38
2023-05-14T04:03:47.851Z,98139.38
2023-05-14T04:06:50.767Z,98135.88
2023-05-14T04:09:53.476Z,98138.03
2023-05-14T04:12:57.678Z,98137.50
2023-05-14T04:16:00.596Z,98139.38
2023-05-14T04:19:04.869Z,98136.41
2023-05-14T04:22:07.586Z,98141.25
2023-05-14T04:25:10.659Z,98144.75
2023-05-14T04:28:14.983Z,98139.09
2023-05-14T04:31:17.694Z,98142.00
2023-05-14T04:34:20.449Z,98144.69
2023-05-14T04:37:23.284Z,98143.56
2023-05-14T04:40:26.159Z,98138.22
2023-05-14T04:43:30.442Z,98144.09
2023-05-14T04:46:33.243Z,98137.91
2023-05-14T04:49:36.003Z,98133.59
2023-05-14T04:52:39.134Z,98137.09
2023-05-14T04:55:42.073Z,98136.81
2023-05-14T04:58:46.135Z,98141.88
2023-05-14T05:01:48.923Z,98149.41
2023-05-14T05:04:51.759Z,98142.16
2023-05-14T05:07:54.704Z,98142.47
2023-05-14T05:10:57.350Z,98141.69
2023-05-14T05:14:01.613Z,98138.72
2023-05-14T05:17:04.563Z,98137.31
2023-05-14T05:20:09.973Z,98142.97
2023-05-14T05:23:12.731Z,98141.63
2023-05-14T05:26:15.744Z,98131.94
2023-05-14T05:29:19.829Z,98137.28
2023-05-14T05:32:22.510Z,98141.53
2023-05-14T05:35:25.243Z,98134.53
2023-05-14T05:38:27.944Z,98137.19
2023-05-14T05:41:31.045Z,98141.44
2023-05-14T05:44:35.092Z,98135.22
2023-05-14T05:47:37.861Z,98147.50
2023-05-14T05:50:40.592Z,98149.06
2023-05-14T05:53:43.438Z,98142.00
2023-05-14T05:56:46.224Z,98141.44
2023-05-14T05:59:50.392Z,98127.25
2023-05-14T06:02:53.313Z,98127.25
2023-05-14T06:05:56.148Z,98141.25
2023-05-14T06:08:58.839Z,98132.84
2023-05-14T06:12:01.554Z,98137.41
2023-05-14T06:15:06.664Z,98136.22
2023-05-14T06:18:09.488Z,98142.94
2023-05-14T06:21:12.151Z,98140.75
2023-05-14T06:24:14.885Z,98140.94
2023-05-14T06:27:17.678Z,98139.00
2023-05-14T06:30:22.207Z,98137.13
2023-05-14T06:33:30.937Z,98136.25
2023-05-14T06:36:33.835Z,98139.69
2023-05-14T06:39:36.561Z,98145.06
2023-05-14T06:42:39.418Z,98140.44
2023-05-14T06:45:43.473Z,98135.50
2023-05-14T06:48:47.208Z,98134.66
2023-05-14T06:51:50.018Z,98133.00
2023-05-14T06:54:52.711Z,98132.31
2023-05-14T06:57:55.405Z,98134.16
2023-05-14T07:00:59.633Z,98138.19
2023-05-14T07:04:02.835Z,98135.91
2023-05-14T07:07:06.098Z,98125.75
2023-05-14T07:10:09.581Z,98132.88
2023-05-14T07:13:12.319Z,98133.94
2023-05-14T07:16:16.441Z,98130.09
2023-05-14T07:19:19.254Z,98130.00
2023-05-14T07:22:22.066Z,98131.31
2023-05-14T07:25:24.787Z,98126.16
2023-05-14T07:28:27.563Z,98125.34
2023-05-14T07:31:31.904Z,98123.97
2023-05-14T07:34:34.674Z,98117.97
2023-05-14T07:37:37.457Z,98120.31
2023-05-14T07:40:40.145Z,98122.06
2023-05-14T07:43:43.090Z,98112.28
2023-05-14T07:46:47.376Z,98107.97
2023-05-14T07:49:50.299Z,98103.28
2023-05-14T07:52:53.064Z,98109.03
2023-05-14T07:55:55.881Z,98116.72
2023-05-14T07:58:58.738Z,98108.31
2023-05-14T08:02:02.838Z,98109.06
2023-05-14T08:05:06.175Z,98113.31
2023-05-14T08:08:08.899Z,98100.81
2023-05-14T08:11:11.775Z,98097.41
2023-05-14T08:14:14.401Z,98105.78
2023-05-14T08:17:18.568Z,98099.03
2023-05-14T08:20:21.455Z,98096.34
2023-05-14T08:23:24.262Z,98093.94
2023-05-14T08:26:26.931Z,98097.06
2023-05-14T08:29:29.851Z,98095.16
2023-05-14T08:32:33.876Z,98097.47
2023-05-14T08:35:36.542Z,98082.47
2023-05-14T08:38:39.203Z,98090.09
2023-05-14T08:41:42.263Z,98089.16
2023-05-14T08:44:49.837Z,98085.53
2023-05-14T08:47:54.192Z,98076.81
2023-05-14T08:50:57.179Z,98080.50
2023-05-14T08:54:00.372Z,98074.66
2023-05-14T08:57:04.279Z,98071.94
2023-05-14T09:00:11.577Z,98069.50
2023-05-14T09:03:16.239Z,98069.69
2023-05-14T09:06:19.855Z,98070.97
2023-05-14T09:09:23.563Z,98064.47
2023-05-14T09:12:26.493Z,98072.59
2023-05-14T09:15:30.584Z,98072.59
2023-05-14T09:18:37.166Z,98069.75
2023-05-14T09:21:40.235Z,98072.25
2023-05-14T09:24:44.083Z,98068.91
2023-05-14T09:27:50.725Z,98062.38
2023-05-14T09:30:53.434Z,98057.13
2023-05-14T09:33:57.548Z,98054.09
2023-05-14T09:37:01.821Z,98053.44
2023-05-14T09:40:08.989Z,98055.34
2023-05-14T09:43:11.735Z,98055.66
2023-05-14T09:46:14.582Z,98052.44
2023-05-14T09:49:19.092Z,98051.34
2023-05-14T09:52:21.824Z,98051.53
2023-05-14T09:55:24.733Z,98043.41
2023-05-14T09:58:27.581Z,98044.19
2023-05-14T10:01:33.013Z,98036.09
2023-05-14T10:04:38.580Z,98034.97
2023-05-14T10:07:47.707Z,98032.59
2023-05-14T10:10:52.377Z,98035.91
2023-05-14T10:14:01.679Z,98027.16
2023-05-14T10:17:07.097Z,98036.22
2023-05-14T10:20:16.846Z,98037.03
2023-05-14T10:23:19.908Z,98038.97
2023-05-14T10:26:24.148Z,98037.38
2023-05-14T10:29:34.792Z,98038.94
2023-05-14T10:32:37.974Z,98032.41
2023-05-14T10:35:57.756Z,98036.69
2023-05-14T10:39:05.259Z,98035.41
2023-05-14T10:42:09.175Z,98033.97
2023-05-14T10:45:13.940Z,98026.78
2023-05-14T10:48:17.010Z,98027.59
2023-05-14T10:51:23.001Z,98027.47
2023-05-14T10:54:28.811Z,98013.59
2023-05-14T10:57:33.740Z,98018.88
2023-05-14T11:00:36.917Z,98009.47
2023-05-14T11:03:42.266Z,98002.72
2023-05-14T11:06:48.173Z,98007.78
2023-05-14T11:09:52.368Z,97996.47
2023-05-14T11:12:55.171Z,97999.41
2023-05-14T11:16:02.280Z,97991.41
2023-05-14T11:19:12.196Z,98000.44
2023-05-14T11:22:16.319Z,97981.31
2023-05-14T11:25:19.055Z,97983.78
2023-05-14T11:28:22.853Z,97983.34
2023-05-14T11:31:26.599Z,97980.09
2023-05-14T11:34:29.804Z,97970.59
2023-05-14T11:37:33.893Z,97964.75
2023-05-14T11:40:36.660Z,97960.63
2023-05-14T11:43:39.424Z,97961.28
2023-05-14T11:46:42.209Z,97963.91
2023-05-14T11:49:45.507Z,97961.19
2023-05-14T11:52:50.831Z,97955.28
2023-05-14T11:55:54.385Z,97959.56
2023-05-14T11:58:58.408Z,97951.97
2023-05-14T12:02:01.583Z,97948.97
2023-05-14T12:05:07.147Z,97950.22
2023-05-14T12:08:24.385Z,97954.22
2023-05-14T12:12:17.175Z,97958.38
2023-05-14T12:15:21.939Z,97950.31
2023-05-14T12:18:26.288Z,97946.78
2023-05-14T12:21:31.504Z,97947.78
2023-05-14T12:24:35.652Z,97949.50
2023-05-14T12:27:38.962Z,97944.03
2023-05-14T12:30:41.870Z,97949.16
2023-05-14T12:33:44.562Z,97935.06
2023-05-14T12:36:47.905Z,97933.63
2023-05-14T12:39:52.005Z,97928.84
2023-05-14T12:42:56.690Z,97932.69
2023-05-14T12:45:59.599Z,97926.94
2023-05-14T12:49:02.243Z,97933.03
2023-05-14T12:52:22.682Z,97915.81
2023-05-14T12:55:29.596Z,97918.84
2023-05-14T12:58:32.266Z,97908.13
2023-05-14T13:01:35.022Z,97907.41
2023-05-14T13:04:38.452Z,97906.38
2023-05-14T13:07:41.582Z,97901.13
2023-05-14T13:10:45.716Z,97894.53
2023-05-14T13:13:48.444Z,97892.06
2023-05-14T13:16:51.176Z,97897.06
2023-05-14T13:19:53.915Z,97885.25
2023-05-14T13:22:56.599Z,97886.75
2023-05-14T13:26:00.678Z,97879.28
2023-05-14T13:29:03.442Z,97877.78
2023-05-14T13:32:06.665Z,97872.34
2023-05-14T13:35:10.160Z,97871.44
2023-05-14T13:38:12.864Z,97873.50
2023-05-14T13:41:16.870Z,97871.66
2023-05-14T13:44:19.735Z,97865.56
2023-05-14T13:47:22.447Z,97867.41
2023-05-14T13:50:25.207Z,97862.72
2023-05-14T13:53:28.256Z,97859.88
2023-05-14T13:56:32.332Z,97856.34
2023-05-14T13:59:35.180Z,97853.59
2023-05-14T14:02:37.889Z,97848.44
2023-05-14T14:05:40.620Z,97843.38
2023-05-14T14:08:43.380Z,97840.13
2023-05-14T14:11:47.712Z,97839.00
2023-05-14T14:14:50.983Z,97830.50
2023-05-14T14:17:53.776Z,97828.53
2023-05-14T14:20:56.443Z,97831.03
2023-05-14T14:23:59.195Z,97820.13
2023-05-14T14:27:03.277Z,97818.31
2023-05-14T14:30:08.210Z,97819.91
2023-05-14T14:33:11.295Z,97826.25
2023-05-14T14:36:14.140Z,97828.34
2023-05-14T14:39:16.901Z,97831.63
2023-05-14T14:42:21.006Z,97828.00
2023-05-14T14:45:24.218Z,97824.56
2023-05-14T14:48:28.390Z,97822.63
2023-05-14T14:51:31.358Z,97825.50
2023-05-14T14:54:34.249Z,97823.34
2023-05-14T14:57:39.725Z,97828.25
2023-05-14T15:00:42.704Z,97815.38
2023-05-14T15:03:45.642Z,97820.03
2023-05-14T15:06:48.294Z,97820.03
2023-05-14T15:09:50.973Z,97820.44
2023-05-14T15:12:55.040Z,97805.97
2023-05-14T15:15:57.685Z,97808.84
2023-05-14T15:19:00.449Z,97814.06
2023-05-14T15:22:03.450Z,97803.56
2023-05-14T15:25:06.756Z,97802.16
2023-05-14T15:28:10.907Z,97800.69
2023-05-14T15:31:13.692Z,97798.03
2023-05-14T15:34:16.436Z,97800.84
2023-05-14T15:37:19.188Z,97802.66
2023-05-14T15:40:22.210Z,97802.59
2023-05-14T15:43:26.358Z,97806.38
2023-05-14T15:46:29.147Z,97801.97
2023-05-14T15:49:31.899Z,97807.69
2023-05-14T15:52:35.758Z,97809.31
2023-05-14T15:55:38.449Z,97802.44
2023-05-14T15:58:42.429Z,97794.78
2023-05-14T16:01:45.233Z,97793.66
2023-05-14T16:04:49.510Z,97802.53
2023-05-14T16:07:52.198Z,97803.28
2023-05-14T16:10:54.881Z,97804.03
2023-05-14T16:13:59.388Z,97803.75
2023-05-14T16:17:02.774Z,97797.53
2023-05-14T16:20:06.296Z,97805.50
2023-05-14T16:23:08.930Z,97812.16
2023-05-14T16:26:11.804Z,97806.34
2023-05-14T16:29:15.858Z,97807.00
2023-05-14T16:32:18.583Z,97800.16
2023-05-14T16:35:21.456Z,97808.88
2023-05-14T16:38:24.222Z,97808.00
2023-05-14T16:41:26.899Z,97799.50
2023-05-14T16:44:30.938Z,97796.03
2023-05-14T16:47:33.586Z,97808.88
2023-05-14T16:50:36.242Z,97803.66
2023-05-14T16:53:38.931Z,97801.78
2023-05-14T16:56:41.885Z,97805.09
2023-05-14T16:59:46.352Z,97801.41
2023-05-14T17:02:50.898Z,97797.50
2023-05-14T17:05:53.569Z,97805.88
2023-05-14T17:08:56.303Z,97803.56
2023-05-14T17:11:59.100Z,97804.88
2023-05-14T17:15:05.487Z,97804.94
2023-05-14T17:18:08.559Z,97802.38
2023-05-14T17:21:11.227Z,97805.78
2023-05-14T17:24:13.846Z,97807.53
2023-05-14T17:27:16.875Z,97808.16
2023-05-14T17:30:21.237Z,97805.78
2023-05-14T17:33:23.986Z,97814.41
2023-05-14T17:36:28.384Z,97816.97
2023-05-14T17:39:31.120Z,97810.00
2023-05-14T17:42:33.832Z,97824.53
2023-05-14T17:45:50.273Z,97819.94
2023-05-14T17:48:58.173Z,97818.53
2023-05-14T17:52:00.920Z,97819.03
2023-05-14T17:55:03.742Z,97821.91
2023-05-14T17:58:06.584Z,97823.84
2023-05-14T18:01:10.590Z,97812.09
2023-05-14T18:04:13.422Z,97812.91
2023-05-14T18:07:16.335Z,97812.75
2023-05-14T18:10:19.621Z,97809.88
2023-05-14T18:13:22.326Z,97823.09
2023-05-14T18:16:26.479Z,97826.41
2023-05-14T18:19:29.163Z,97824.19
2023-05-14T18:22:32.100Z,97828.59
2023-05-14T18:25:35.362Z,97832.56
2023-05-14T18:28:38.154Z,97829.16
2023-05-14T18:31:42.230Z,97821.03
2023-05-14T18:34:44.835Z,97825.13
2023-05-14T18:37:47.499Z,97834.44
2023-05-14T18:40:50.306Z,97835.81
2023-05-14T18:43:52.956Z,97835.97
2023-05-14T18:46:57.217Z,97832.13
2023-05-14T18:50:01.855Z,97831.41
2023-05-14T18:53:04.778Z,97837.22
2023-05-14T18:56:07.551Z,97835.47
2023-05-14T18:59:10.311Z,97843.50
2023-05-14T19:02:14.266Z,97842.16
2023-05-14T19:05:17.054Z,97840.06
2023-05-14T19:08:19.818Z,97838.91
2023-05-14T19:11:22.571Z,97841.72
2023-05-14T19:14:25.291Z,97850.56
2023-05-14T19:17:32.714Z,97858.03
2023-05-14T19:20:35.401Z,97857.66
2023-05-14T19:23:38.112Z,97861.38
2023-05-14T19:26:40.797Z,97864.69
2023-05-14T19:29:43.482Z,97869.09
2023-05-14T19:32:48.039Z,97862.22
2023-05-14T19:35:51.278Z,97873.91
2023-05-14T19:38:53.939Z,97875.09
2023-05-14T19:41:56.664Z,97874.22
2023-05-14T19:44:59.537Z,97882.00
2023-05-14T19:48:03.956Z,97879.19
2023-05-14T19:51:06.768Z,97878.72
2023-05-14T19:54:09.951Z,97877.91
2023-05-14T19:57:12.677Z,97874.41
2023-05-14T20:00:15.930Z,97874.41
2023-05-14T20:03:20.301Z,97862.84
2023-05-14T20:06:23.167Z,97868.41
2023-05-14T20:09:26.044Z,97871.91
2023-05-14T20:12:28.914Z,97873.53
2023-05-14T20:15:32.213Z,97872.22
2023-05-14T20:18:36.459Z,97869.84
2023-05-14T20:21:39.460Z,97877.72
2023-05-14T20:24:42.096Z,97865.84
2023-05-14T20:27:45.004Z,97873.72
2023-05-14T20:30:47.912Z,97876.72
2023-05-14T20:33:51.928Z,97878.63
2023-05-14T20:36:54.828Z,97873.03
2023-05-14T20:39:57.586Z,97868.22
2023-05-14T20:43:00.254Z,97867.34
2023-05-14T20:46:03.053Z,97865.44
2023-05-14T20:49:07.152Z,97853.97
2023-05-14T20:52:09.814Z,97858.94
2023-05-14T20:55:13.241Z,97843.88
2023-05-14T20:58:15.873Z,97844.47
2023-05-14T21:01:18.606Z,97850.16
2023-05-14T21:04:22.898Z,97852.84
2023-05-14T21:07:27.060Z,97848.56
2023-05-14T21:10:30.268Z,97862.59
2023-05-14T21:13:32.987Z,97859.19
2023-05-14T21:16:36.195Z,97867.06
2023-05-14T21:19:40.563Z,97866.66
2023-05-14T21:22:43.251Z,97863.22
2023-05-14T21:25:45.926Z,97858.94
2023-05-14T21:28:48.619Z,97865.19
2023-05-14T21:31:51.320Z,97858.31
2023-05-14T21:34:56.091Z,97859.22
2023-05-14T21:37:58.836Z,97858.41
2023-05-14T21:41:01.731Z,97865.16
2023-05-14T21:44:04.395Z,97852.59
2023-05-14T21:47:07.696Z,97859.66
2023-05-14T21:50:13.153Z,97857.03
2023-05-14T21:53:15.996Z,97855.53
2023-05-14T21:56:19.384Z,97846.44
2023-05-14T21:59:22.583Z,97852.13
2023-05-14T22:02:25.489Z,97848.91
2023-05-14T22:05:30.328Z,97842.53
2023-05-14T22:08:33.058Z,97850.88
2023-05-14T22:11:35.794Z,97839.31
2023-05-14T22:14:38.479Z,97841.59
2023-05-14T22:17:41.871Z,97838.69
2023-05-14T22:20:46.068Z,97836.56
2023-05-14T22:23:50.448Z,97844.13
2023-05-14T22:26:53.094Z,97828.81
2023-05-14T22:29:55.921Z,97833.38
2023-05-14T22:32:58.621Z,97839.25
2023-05-14T22:36:02.751Z,97834.28
2023-05-14T22:39:05.779Z,97837.53
2023-05-14T22:42:08.838Z,97834.06
2023-05-14T22:45:11.760Z,97838.84
2023-05-14T22:48:14.468Z,97835.72
2023-05-14T22:51:18.575Z,97826.19
2023-05-14T22:54:21.472Z,97834.41
2023-05-14T22:57:24.139Z,97827.84
2023-05-14T23:00:27.285Z,97827.13
2023-05-14T23:03:30.234Z,97821.34
2023-05-14T23:06:34.458Z,97819.97
2023-05-14T23:09:37.097Z,97820.22
2023-05-14T23:12:39.788Z,97815.97
2023-05-14T23:15:42.485Z,97814.84
2023-05-14T23:18:45.509Z,97816.97
2023-05-14T23:21:49.604Z,97809.72
2023-05-14T23:24:52.230Z,97814.28
2023-05-14T23:27:54.946Z,97813.88
2023-05-14T23:30:57.602Z,97803.69
2023-05-14T23:34:00.268Z,97805.31
2023-05-14T23:37:04.310Z,97806.69
2023-05-14T23:40:08.859Z,97807.78
2023-05-14T23:43:11.459Z,97808.09
2023-05-14T23:46:14.099Z,97811.06
2023-05-14T23:49:16.791Z,97808.63
2023-05-14T23:52:20.822Z,97801.59
2023-05-14T23:55:23.784Z,97800.53
2023-05-14T23:58:26.867Z,97797.84
